createdAt,value
2023-01-15T00:00:07.389Z,9.60
2023-01-15T00:02:35.554Z,9.60
2023-01-15T00:05:03.709Z,9.60
2023-01-15T00:07:33.660Z,9.60
2023-01-15T00:10:01.833Z,9.60
2023-01-15T00:12:29.963Z,9.60
2023-01-15T00:14:58.838Z,9.60
2023-01-15T00:17:27.268Z,9.50
2023-01-15T00:19:55.713Z,9.50
2023-01-15T00:22:23.823Z,9.40
2023-01-15T00:25:10.470Z,9.50
2023-01-15T00:27:41.868Z,9.40
2023-01-15T00:30:13.083Z,9.30
2023-01-15T00:32:41.501Z,9.20
2023-01-15T00:35:14.463Z,8.90
2023-01-15T00:37:42.672Z,8.60
2023-01-15T00:40:14.208Z,8.40
2023-01-15T00:42:43.099Z,8.20
2023-01-15T00:45:15.405Z,8.00
2023-01-15T00:47:48.039Z,7.80
2023-01-15T00:50:16.953Z,7.60
2023-01-15T00:52:45.058Z,7.50
2023-01-15T00:55:14.691Z,7.40
2023-01-15T00:57:42.817Z,7.30
2023-01-15T01:00:13.284Z,7.10
2023-01-15T01:02:41.494Z,7.10
2023-01-15T01:05:10.521Z,7.00
2023-01-15T01:07:38.788Z,6.90
2023-01-15T01:10:09.094Z,6.80
2023-01-15T01:12:38.709Z,6.70
2023-01-15T01:15:09.865Z,6.70
2023-01-15T01:17:38.448Z,6.60
2023-01-15T01:20:07.648Z,6.50
2023-01-15T01:22:35.732Z,6.40
2023-01-15T01:25:03.892Z,6.40
2023-01-15T01:27:32.035Z,6.20
2023-01-15T01:30:01.672Z,6.20
2023-01-15T01:32:29.936Z,6.40
2023-01-15T01:34:58.171Z,6.10
2023-01-15T01:37:26.218Z,6.10
2023-01-15T01:39:55.006Z,6.30
2023-01-15T01:42:23.976Z,6.00
2023-01-15T01:45:14.319Z,5.90
2023-01-15T01:47:42.439Z,5.90
2023-01-15T01:50:14.579Z,5.90
2023-01-15T01:52:47.148Z,5.80
2023-01-15T01:55:19.130Z,5.70
2023-01-15T01:57:49.172Z,5.70
2023-01-15T02:00:19.218Z,5.70
2023-01-15T02:02:50.734Z,5.60
2023-01-15T02:05:27.729Z,5.60
2023-01-15T02:07:55.823Z,5.60
2023-01-15T02:10:24.153Z,5.60
2023-01-15T02:12:59.272Z,5.50
2023-01-15T02:15:35.016Z,5.50
2023-01-15T02:18:11.466Z,5.50
2023-01-15T02:20:43.298Z,5.50
2023-01-15T02:23:30.975Z,5.40
2023-01-15T02:26:27.125Z,5.50
2023-01-15T02:28:59.653Z,5.50
2023-01-15T02:31:34.895Z,5.40
2023-01-15T02:34:06.829Z,5.40
2023-01-15T02:36:38.804Z,5.40
2023-01-15T02:39:10.896Z,5.30
2023-01-15T02:41:44.783Z,5.30
2023-01-15T02:44:17.742Z,5.30
2023-01-15T02:46:48.021Z,5.30
2023-01-15T02:49:18.891Z,5.30
2023-01-15T02:51:52.076Z,5.30
2023-01-15T02:54:21.375Z,5.30
2023-01-15T02:56:50.983Z,5.30
2023-01-15T02:59:24.937Z,5.30
2023-01-15T03:01:59.641Z,5.30
2023-01-15T03:04:33.475Z,5.30
2023-01-15T03:07:07.157Z,5.30
2023-01-15T03:09:35.611Z,5.30
2023-01-15T03:12:09.642Z,5.30
2023-01-15T03:14:44.134Z,5.30
2023-01-15T03:17:18.385Z,5.30
2023-01-15T03:19:51.527Z,5.30
2023-01-15T03:22:24.545Z,5.20
2023-01-15T03:24:56.060Z,5.30
2023-01-15T03:27:24.701Z,5.30
2023-01-15T03:30:02.048Z,5.30
2023-01-15T03:32:31.322Z,5.30
2023-01-15T03:35:00.350Z,5.30
2023-01-15T03:37:29.373Z,5.40
2023-01-15T03:39:59.665Z,5.40
2023-01-15T03:42:45.700Z,5.40
2023-01-15T03:45:21.560Z,5.50
2023-01-15T03:47:57.408Z,5.50
2023-01-15T03:50:32.618Z,5.50
2023-01-15T03:53:10.100Z,5.60
2023-01-15T03:55:45.303Z,5.60
2023-01-15T03:58:19.069Z,5.80
2023-01-15T04:00:51.813Z,5.70
2023-01-15T04:03:21.503Z,5.70
2023-01-15T04:05:51.512Z,5.70
2023-01-15T04:08:20.866Z,5.70
2023-01-15T04:10:53.675Z,5.80
2023-01-15T04:13:22.195Z,5.70
2023-01-15T04:15:52.724Z,5.70
2023-01-15T04:18:21.597Z,5.70
2023-01-15T04:20:49.940Z,5.70
2023-01-15T04:23:17.958Z,5.70
2023-01-15T04:25:45.937Z,5.70
2023-01-15T04:28:13.999Z,5.70
2023-01-15T04:30:43.402Z,5.90
2023-01-15T04:33:13.171Z,5.80
2023-01-15T04:35:41.268Z,5.60
2023-01-15T04:38:09.293Z,5.70
2023-01-15T04:40:54.882Z,5.70
2023-01-15T04:43:40.383Z,5.80
2023-01-15T04:46:08.390Z,5.70
2023-01-15T04:48:37.821Z,5.80
2023-01-15T04:51:06.694Z,5.80
2023-01-15T04:53:35.170Z,5.70
2023-01-15T04:56:03.927Z,5.70
2023-01-15T04:58:32.141Z,5.80
2023-01-15T05:01:00.919Z,5.60
2023-01-15T05:03:29.029Z,5.80
2023-01-15T05:06:02.418Z,5.80
2023-01-15T05:08:30.915Z,5.80
2023-01-15T05:11:03.695Z,5.90
2023-01-15T05:13:33.368Z,5.90
2023-01-15T05:16:13.524Z,5.90
2023-01-15T05:18:41.870Z,5.90
2023-01-15T05:21:20.372Z,6.10
2023-01-15T05:23:49.016Z,5.90
2023-01-15T05:26:17.365Z,5.90
2023-01-15T05:28:46.317Z,6.00
2023-01-15T05:31:16.006Z,6.00
2023-01-15T05:33:45.297Z,6.00
2023-01-15T05:36:17.277Z,5.80
2023-01-15T05:38:45.630Z,5.90
2023-01-15T05:41:33.003Z,5.80
2023-01-15T05:44:02.653Z,5.90
2023-01-15T05:46:30.727Z,5.90
2023-01-15T05:49:02.098Z,5.90
2023-01-15T05:51:31.815Z,5.90
2023-01-15T05:53:59.831Z,5.90
2023-01-15T05:56:27.893Z,5.90
2023-01-15T05:58:56.059Z,5.90
2023-01-15T06:01:24.682Z,5.90
2023-01-15T06:03:53.672Z,5.90
2023-01-15T06:06:21.822Z,5.90
2023-01-15T06:08:51.153Z,6.00
2023-01-15T06:11:19.120Z,6.00
2023-01-15T06:13:47.132Z,6.20
2023-01-15T06:16:15.438Z,6.10
2023-01-15T06:18:43.698Z,6.10
2023-01-15T06:21:13.705Z,6.10
2023-01-15T06:23:42.636Z,6.00
2023-01-15T06:26:15.382Z,6.00
2023-01-15T06:28:44.230Z,6.00
2023-01-15T06:31:14.333Z,6.30
2023-01-15T06:33:42.410Z,6.20
2023-01-15T06:36:12.427Z,6.00
2023-01-15T06:38:41.036Z,6.10
2023-01-15T06:41:29.136Z,6.10
2023-01-15T06:44:14.881Z,6.00
2023-01-15T06:47:03.858Z,6.00
2023-01-15T06:49:31.897Z,6.00
2023-01-15T06:51:59.982Z,6.10
2023-01-15T06:54:28.115Z,6.30
2023-01-15T06:56:57.600Z,6.00
2023-01-15T06:59:25.609Z,6.00
2023-01-15T07:01:53.923Z,6.00
2023-01-15T07:04:22.007Z,6.00
2023-01-15T07:06:50.042Z,5.90
2023-01-15T07:09:18.099Z,6.00
2023-01-15T07:11:50.364Z,6.10
2023-01-15T07:14:21.380Z,6.00
2023-01-15T07:16:49.710Z,6.00
2023-01-15T07:19:18.688Z,6.10
2023-01-15T07:21:46.965Z,6.10
2023-01-15T07:24:17.388Z,6.10
2023-01-15T07:26:46.233Z,6.10
2023-01-15T07:29:14.948Z,6.00
2023-01-15T07:31:44.349Z,6.00
2023-01-15T07:34:12.380Z,6.00
2023-01-15T07:36:40.532Z,6.00
2023-01-15T07:39:10.530Z,6.00
2023-01-15T07:41:56.287Z,6.00
2023-01-15T07:44:42.308Z,6.00
2023-01-15T07:47:37.241Z,6.00
2023-01-15T07:50:07.989Z,6.00
2023-01-15T07:52:36.056Z,6.00
2023-01-15T07:55:04.919Z,6.00
2023-01-15T07:57:32.967Z,6.00
2023-01-15T08:00:01.085Z,6.00
2023-01-15T08:02:30.429Z,6.10
2023-01-15T08:04:58.445Z,6.00
2023-01-15T08:07:26.612Z,6.10
2023-01-15T08:09:54.608Z,6.30
2023-01-15T08:12:39.953Z,6.00
2023-01-15T08:15:16.680Z,6.10
2023-01-15T08:17:49.398Z,6.10
2023-01-15T08:20:19.273Z,6.10
2023-01-15T08:22:51.422Z,6.10
2023-01-15T08:25:21.955Z,6.10
2023-01-15T08:27:50.124Z,6.10
2023-01-15T08:30:22.035Z,6.10
2023-01-15T08:32:51.510Z,6.20
2023-01-15T08:35:19.563Z,6.20
2023-01-15T08:37:47.646Z,6.20
2023-01-15T08:40:15.661Z,6.20
2023-01-15T08:42:43.655Z,6.20
2023-01-15T08:45:12.655Z,6.30
2023-01-15T08:47:40.670Z,6.30
2023-01-15T08:50:11.670Z,6.50
2023-01-15T08:52:39.817Z,6.20
2023-01-15T08:55:09.101Z,6.00
2023-01-15T08:57:38.504Z,5.90
2023-01-15T09:00:07.876Z,6.00
2023-01-15T09:02:35.907Z,5.70
2023-01-15T09:05:03.982Z,5.60
2023-01-15T09:07:35.355Z,5.50
2023-01-15T09:10:04.392Z,5.50
2023-01-15T09:12:32.770Z,5.50
2023-01-15T09:15:03.286Z,5.70
2023-01-15T09:17:32.605Z,5.90
2023-01-15T09:20:02.975Z,6.00
2023-01-15T09:22:31.283Z,6.00
2023-01-15T09:25:00.673Z,5.90
2023-01-15T09:27:29.280Z,6.10
2023-01-15T09:29:58.116Z,6.30
2023-01-15T09:32:26.269Z,6.50
2023-01-15T09:34:54.315Z,6.70
2023-01-15T09:37:22.552Z,7.00
2023-01-15T09:39:50.537Z,7.30
2023-01-15T09:42:37.040Z,7.60
2023-01-15T09:45:25.762Z,7.80
2023-01-15T09:48:18.026Z,8.00
2023-01-15T09:50:55.285Z,8.00
2023-01-15T09:53:48.144Z,8.20
2023-01-15T09:56:22.283Z,8.20
2023-01-15T09:58:53.186Z,8.00
2023-01-15T10:01:28.616Z,7.90
2023-01-15T10:04:03.733Z,7.90
2023-01-15T10:06:36.824Z,7.90
2023-01-15T10:09:13.956Z,7.90
2023-01-15T10:12:02.592Z,7.80
2023-01-15T10:14:46.735Z,7.80
2023-01-15T10:17:22.100Z,7.70
2023-01-15T10:19:50.289Z,7.70
2023-01-15T10:22:33.575Z,7.80
2023-01-15T10:25:08.718Z,7.80
2023-01-15T10:27:38.264Z,7.90
2023-01-15T10:30:16.382Z,7.80
2023-01-15T10:33:01.381Z,7.80
2023-01-15T10:35:45.805Z,7.80
2023-01-15T10:38:23.824Z,8.00
2023-01-15T10:41:32.874Z,8.30
2023-01-15T10:44:06.466Z,8.80
2023-01-15T10:49:32.447Z,8.70
2023-01-15T10:52:07.050Z,8.60
2023-01-15T10:54:39.389Z,8.40
2023-01-15T10:57:12.692Z,8.20
2023-01-15T10:59:46.373Z,8.20
2023-01-15T11:02:27.596Z,8.40
2023-01-15T11:04:57.157Z,8.90
2023-01-15T11:07:30.092Z,9.40
2023-01-15T11:10:07.978Z,9.90
2023-01-15T11:12:54.220Z,10.70
2023-01-15T11:15:43.746Z,11.10
2023-01-15T11:18:35.767Z,11.60
2023-01-15T11:21:11.538Z,11.90
2023-01-15T11:23:42.870Z,12.10
2023-01-15T11:26:17.960Z,12.20
2023-01-15T11:28:46.962Z,12.20
2023-01-15T11:31:16.058Z,11.90
2023-01-15T11:33:47.040Z,11.10
2023-01-15T11:36:26.928Z,10.90
2023-01-15T11:38:55.033Z,10.60
2023-01-15T11:41:25.215Z,10.40
2023-01-15T11:44:15.334Z,10.10
2023-01-15T11:47:01.409Z,10.20
2023-01-15T11:49:46.893Z,10.10
2023-01-15T11:52:20.563Z,10.20
2023-01-15T11:54:52.878Z,10.00
2023-01-15T11:57:27.888Z,10.00
2023-01-15T11:59:56.152Z,10.20
2023-01-15T12:02:36.499Z,10.30
2023-01-15T12:05:05.944Z,10.10
2023-01-15T12:07:40.718Z,9.60
2023-01-15T12:10:21.769Z,9.20
2023-01-15T12:13:05.855Z,9.00
2023-01-15T12:15:42.607Z,9.10
2023-01-15T12:18:32.756Z,8.80
2023-01-15T12:21:06.303Z,8.60
2023-01-15T12:23:55.619Z,8.30
2023-01-15T12:26:28.725Z,8.30
2023-01-15T12:29:05.147Z,8.30
2023-01-15T12:31:38.124Z,8.00
2023-01-15T12:34:16.752Z,8.20
2023-01-15T12:36:48.949Z,8.20
2023-01-15T12:39:23.069Z,8.10
2023-01-15T12:42:13.424Z,8.10
2023-01-15T12:45:05.100Z,8.30
2023-01-15T12:47:41.588Z,8.20
2023-01-15T12:50:25.021Z,8.40
2023-01-15T12:53:00.147Z,8.80
2023-01-15T12:55:32.659Z,9.10
2023-01-15T12:58:03.752Z,9.00
2023-01-15T13:00:36.863Z,8.90
2023-01-15T13:03:18.862Z,9.00
2023-01-15T13:05:50.059Z,8.90
2023-01-15T13:08:25.203Z,8.80
2023-01-15T13:10:54.686Z,8.70
2023-01-15T13:13:24.799Z,8.60
2023-01-15T13:16:05.838Z,8.50
2023-01-15T13:18:48.611Z,8.40
2023-01-15T13:21:20.323Z,8.30
2023-01-15T13:24:09.713Z,8.30
2023-01-15T13:27:07.136Z,8.20
2023-01-15T13:29:45.174Z,8.10
2023-01-15T13:32:19.306Z,8.10
2023-01-15T13:34:51.314Z,8.10
2023-01-15T13:37:28.091Z,8.20
2023-01-15T13:40:01.092Z,8.00
2023-01-15T13:42:35.611Z,8.00
2023-01-15T13:45:26.515Z,8.00
2023-01-15T13:47:58.080Z,7.90
2023-01-15T13:50:30.993Z,7.80
2023-01-15T13:53:06.939Z,7.90
2023-01-15T13:55:37.975Z,8.00
2023-01-15T13:58:22.562Z,8.10
2023-01-15T14:01:01.471Z,8.20
2023-01-15T14:03:31.072Z,8.20
2023-01-15T14:06:00.907Z,8.20
2023-01-15T14:08:37.169Z,8.30
2023-01-15T14:11:05.521Z,8.00
2023-01-15T14:13:51.597Z,8.00
2023-01-15T14:16:30.567Z,7.90
2023-01-15T14:19:26.135Z,7.80
2023-01-15T14:22:08.330Z,7.80
2023-01-15T14:25:09.430Z,7.80
2023-01-15T14:28:03.443Z,7.70
2023-01-15T14:31:20.088Z,7.60
2023-01-15T14:33:59.734Z,7.50
2023-01-15T14:36:30.855Z,7.50
2023-01-15T14:39:01.896Z,7.50
2023-01-15T14:41:33.642Z,7.50
2023-01-15T14:44:02.793Z,7.40
2023-01-15T14:46:35.062Z,7.40
2023-01-15T14:49:03.840Z,7.40
2023-01-15T14:51:36.599Z,7.40
2023-01-15T14:54:08.346Z,7.50
2023-01-15T14:56:39.476Z,7.40
2023-01-15T14:59:15.407Z,7.30
2023-01-15T15:01:52.125Z,7.40
2023-01-15T15:04:25.216Z,7.30
2023-01-15T15:06:56.632Z,7.30
2023-01-15T15:09:35.715Z,7.30
2023-01-15T15:12:20.167Z,7.20
2023-01-15T15:14:55.762Z,7.10
2023-01-15T15:17:33.281Z,7.10
2023-01-15T15:20:16.828Z,7.10
2023-01-15T15:22:47.740Z,7.10
2023-01-15T15:25:22.673Z,7.40
2023-01-15T15:27:50.829Z,7.20
2023-01-15T15:30:21.289Z,7.20
2023-01-15T15:32:52.890Z,7.10
2023-01-15T15:35:27.021Z,7.00
2023-01-15T15:38:01.526Z,7.10
2023-01-15T15:40:34.362Z,7.00
2023-01-15T15:43:28.971Z,7.10
2023-01-15T15:46:18.907Z,7.00
2023-01-15T15:48:56.246Z,7.00
2023-01-15T15:51:32.096Z,7.00
2023-01-15T15:54:21.805Z,7.10
2023-01-15T15:56:56.711Z,7.00
2023-01-15T15:59:33.920Z,7.10
2023-01-15T16:02:17.465Z,7.10
2023-01-15T16:04:49.067Z,7.00
2023-01-15T16:07:25.319Z,7.00
2023-01-15T16:09:55.894Z,6.90
2023-01-15T16:12:24.954Z,7.00
2023-01-15T16:14:56.900Z,6.90
2023-01-15T16:17:27.004Z,6.90
2023-01-15T16:19:57.718Z,6.90
2023-01-15T16:22:29.311Z,6.90
2023-01-15T16:24:59.526Z,6.80
2023-01-15T16:27:35.883Z,6.90
2023-01-15T16:30:05.910Z,6.80
2023-01-15T16:32:35.999Z,6.80
2023-01-15T16:35:16.213Z,6.80
2023-01-15T16:37:48.071Z,6.80
2023-01-15T16:40:29.048Z,6.80
2023-01-15T16:43:10.549Z,6.80
2023-01-15T16:45:54.811Z,6.70
2023-01-15T16:48:30.130Z,6.70
2023-01-15T16:51:20.758Z,6.60
2023-01-15T16:53:49.180Z,6.60
2023-01-15T16:56:28.456Z,6.60
2023-01-15T16:58:57.099Z,6.60
2023-01-15T17:01:38.523Z,6.60
2023-01-15T17:04:20.996Z,6.50
2023-01-15T17:06:59.308Z,6.50
2023-01-15T17:09:29.183Z,6.50
2023-01-15T17:11:58.949Z,6.50
2023-01-15T17:14:30.369Z,6.60
2023-01-15T17:17:26.807Z,6.60
2023-01-15T17:19:58.274Z,6.50
2023-01-15T17:22:30.566Z,6.50
2023-01-15T17:25:01.753Z,6.50
2023-01-15T17:27:31.271Z,6.60
2023-01-15T17:29:59.983Z,6.50
2023-01-15T17:32:35.991Z,6.60
2023-01-15T17:35:06.597Z,6.60
2023-01-15T17:37:37.115Z,6.60
2023-01-15T17:40:06.376Z,6.70
2023-01-15T17:42:34.507Z,6.70
2023-01-15T17:45:02.945Z,6.70
2023-01-15T17:47:31.254Z,6.70
2023-01-15T17:49:59.709Z,6.70
2023-01-15T17:52:28.142Z,6.70
2023-01-15T17:55:14.845Z,6.80
2023-01-15T17:58:00.162Z,6.80
2023-01-15T18:00:48.439Z,6.80
2023-01-15T18:03:36.719Z,6.80
2023-01-15T18:06:06.040Z,6.80
2023-01-15T18:08:34.720Z,6.80
2023-01-15T18:11:04.348Z,6.90
2023-01-15T18:13:32.587Z,6.90
2023-01-15T18:16:00.826Z,6.90
2023-01-15T18:18:29.241Z,6.90
2023-01-15T18:20:57.677Z,6.80
2023-01-15T18:23:26.630Z,6.80
2023-01-15T18:25:54.810Z,6.80
2023-01-15T18:28:24.736Z,6.80
2023-01-15T18:30:53.271Z,6.80
2023-01-15T18:33:21.919Z,6.80
2023-01-15T18:35:50.718Z,6.80
2023-01-15T18:38:19.242Z,6.80
2023-01-15T18:40:47.342Z,6.80
2023-01-15T18:43:32.582Z,6.90
2023-01-15T18:46:31.172Z,6.70
2023-01-15T18:48:59.413Z,6.80
2023-01-15T18:51:28.323Z,6.70
2023-01-15T18:53:56.879Z,6.70
2023-01-15T18:56:39.674Z,6.70
2023-01-15T18:59:09.835Z,6.70
2023-01-15T19:01:41.375Z,6.70
2023-01-15T19:04:11.177Z,6.80
2023-01-15T19:06:41.399Z,6.80
2023-01-15T19:09:13.827Z,6.90
2023-01-15T19:11:42.040Z,6.80
2023-01-15T19:14:27.964Z,6.80
2023-01-15T19:17:15.225Z,6.80
2023-01-15T19:19:43.527Z,6.80
2023-01-15T19:22:30.097Z,6.80
2023-01-15T19:24:58.354Z,6.80
2023-01-15T19:27:26.619Z,6.90
2023-01-15T19:29:54.928Z,6.90
2023-01-15T19:32:24.552Z,6.80
2023-01-15T19:34:53.198Z,6.80
2023-01-15T19:37:22.419Z,6.70
2023-01-15T19:39:50.578Z,6.70
2023-01-15T19:42:36.634Z,6.70
2023-01-15T19:45:23.478Z,6.70
2023-01-15T19:48:11.486Z,6.60
2023-01-15T19:50:42.705Z,6.60
2023-01-15T19:53:12.753Z,6.50
2023-01-15T19:55:44.339Z,6.50
2023-01-15T19:58:15.190Z,6.50
2023-01-15T20:00:48.480Z,6.50
2023-01-15T20:03:18.758Z,6.40
2023-01-15T20:05:48.437Z,6.40
2023-01-15T20:08:18.275Z,6.40
2023-01-15T20:10:49.845Z,6.40
2023-01-15T20:13:38.268Z,6.30
2023-01-15T20:16:12.276Z,6.30
2023-01-15T20:18:42.817Z,6.30
2023-01-15T20:21:14.618Z,6.30
2023-01-15T20:23:43.825Z,6.20
2023-01-15T20:26:15.894Z,6.20
2023-01-15T20:28:47.969Z,6.20
2023-01-15T20:31:18.017Z,6.20
2023-01-15T20:33:49.968Z,6.10
2023-01-15T20:36:18.698Z,6.00
2023-01-15T20:38:47.756Z,6.00
2023-01-15T20:41:33.700Z,5.90
2023-01-15T20:44:19.422Z,5.80
2023-01-15T20:46:47.698Z,5.80
2023-01-15T20:49:27.034Z,5.80
2023-01-15T20:51:57.068Z,5.80
2023-01-15T20:54:26.763Z,5.70
2023-01-15T20:56:55.077Z,5.80
2023-01-15T20:59:23.382Z,5.90
2023-01-15T21:01:54.809Z,5.80
2023-01-15T21:04:25.216Z,5.90
2023-01-15T21:06:53.529Z,5.90
2023-01-15T21:09:21.830Z,5.90
2023-01-15T21:11:50.116Z,5.90
2023-01-15T21:14:18.328Z,5.90
2023-01-15T21:16:46.576Z,5.90
2023-01-15T21:19:14.810Z,5.90
2023-01-15T21:21:44.454Z,5.90
2023-01-15T21:24:12.732Z,5.90
2023-01-15T21:26:41.062Z,5.80
2023-01-15T21:29:09.518Z,5.80
2023-01-15T21:31:38.052Z,5.80
2023-01-15T21:34:07.144Z,5.80
2023-01-15T21:36:35.590Z,5.80
2023-01-15T21:39:05.901Z,5.90
2023-01-15T21:41:51.372Z,5.80
2023-01-15T21:44:33.668Z,5.80
2023-01-15T21:47:04.051Z,5.80
2023-01-15T21:49:33.470Z,5.80
2023-01-15T21:52:02.272Z,5.80
2023-01-15T21:54:32.931Z,5.80
2023-01-15T21:57:01.593Z,5.70
2023-01-15T21:59:29.980Z,5.70
2023-01-15T22:01:59.719Z,5.70
2023-01-15T22:04:29.385Z,5.70
2023-01-15T22:06:58.197Z,5.70
2023-01-15T22:09:26.882Z,5.80
2023-01-15T22:11:57.411Z,5.90
2023-01-15T22:14:28.485Z,5.90
2023-01-15T22:16:58.066Z,5.90
2023-01-15T22:19:28.404Z,5.90
2023-01-15T22:21:58.768Z,5.90
2023-01-15T22:24:28.283Z,5.90
2023-01-15T22:26:58.727Z,5.90
2023-01-15T22:29:28.331Z,5.90
2023-01-15T22:31:56.721Z,5.90
2023-01-15T22:34:26.119Z,5.90
2023-01-15T22:36:55.335Z,5.80
2023-01-15T22:39:25.029Z,5.80
2023-01-15T22:42:11.121Z,5.90
2023-01-15T22:44:43.373Z,6.00
2023-01-15T22:47:11.840Z,6.00
2023-01-15T22:49:39.981Z,6.00
2023-01-15T22:52:08.177Z,6.00
2023-01-15T22:54:36.548Z,6.00
2023-01-15T22:57:05.365Z,6.00
2023-01-15T22:59:33.463Z,6.00
2023-01-15T23:02:03.386Z,6.00
2023-01-15T23:04:31.780Z,6.00
2023-01-15T23:06:59.905Z,5.90
2023-01-15T23:09:28.256Z,5.90
2023-01-15T23:11:56.350Z,5.80
2023-01-15T23:14:24.608Z,5.80
2023-01-15T23:16:52.727Z,5.70
2023-01-15T23:19:22.329Z,5.60
2023-01-15T23:21:50.511Z,5.60
2023-01-15T23:24:18.539Z,5.60
2023-01-15T23:26:46.610Z,5.60
2023-01-15T23:29:14.760Z,5.70
2023-01-15T23:31:42.826Z,5.70
2023-01-15T23:34:11.400Z,6.00
2023-01-15T23:36:40.971Z,5.70
2023-01-15T23:39:09.398Z,5.80
2023-01-15T23:41:55.080Z,5.80
2023-01-15T23:44:41.152Z,5.80
2023-01-15T23:47:09.453Z,5.80
2023-01-15T23:49:37.487Z,5.80
2023-01-15T23:52:07.752Z,6.00
2023-01-15T23:54:35.866Z,5.70
2023-01-15T23:57:04.063Z,5.70
2023-01-15T23:59:32.305Z,5.70
